sensor_id;sensor_type;location;lat;lon;timestamp;temperature;humidity
9414;DHT22;4746;35.664;139.738;2023-08-21T00:00:38;31.90;99.90
9414;DHT22;4746;35.664;139.738;2023-08-21T00:03:06;32.00;99.90
9414;DHT22;4746;35.664;139.738;2023-08-21T00:05:34;32.00;99.90
9414;DHT22;4746;35.664;139.738;2023-08-21T00:08:01;32.10;99.90
9414;DHT22;4746;35.664;139.738;2023-08-21T00:10:30;32.20;99.90
9414;DHT22;4746;35.664;139.738;2023-08-21T00:13:00;32.30;99.90
9414;DHT22;4746;35.664;139.738;2023-08-21T00:15:28;32.50;99.90
9414;DHT22;4746;35.664;139.738;2023-08-21T00:17:56;32.60;99.90
9414;DHT22;4746;35.664;139.738;2023-08-21T00:20:24;32.70;99.90
9414;DHT22;4746;35.664;139.738;2023-08-21T00:22:51;32.80;99.90
9414;DHT22;4746;35.664;139.738;2023-08-21T00:25:20;32.80;99.90
9414;DHT22;4746;35.664;139.738;2023-08-21T00:27:48;32.80;99.90
9414;DHT22;4746;35.664;139.738;2023-08-21T00:30:16;32.80;99.90
9414;DHT22;4746;35.664;139.738;2023-08-21T00:32:43;32.90;99.90
9414;DHT22;4746;35.664;139.738;2023-08-21T00:35:11;33.00;99.90
9414;DHT22;4746;35.664;139.738;2023-08-21T00:37:39;33.10;99.90
9414;DHT22;4746;35.664;139.738;2023-08-21T00:40:07;33.20;99.90
9414;DHT22;4746;35.664;139.738;2023-08-21T00:42:35;33.10;99.90
9414;DHT22;4746;35.664;139.738;2023-08-21T00:45:03;33.10;99.90
9414;DHT22;4746;35.664;139.738;2023-08-21T00:47:31;33.20;99.90
9414;DHT22;4746;35.664;139.738;2023-08-21T00:49:58;33.30;99.90
9414;DHT22;4746;35.664;139.738;2023-08-21T00:52:27;33.40;99.90
9414;DHT22;4746;35.664;139.738;2023-08-21T00:54:55;33.50;99.90
9414;DHT22;4746;35.664;139.738;2023-08-21T00:57:24;33.50;99.90
9414;DHT22;4746;35.664;139.738;2023-08-21T00:59:53;33.50;99.90
9414;DHT22;4746;35.664;139.738;2023-08-21T01:02:21;33.70;99.90
9414;DHT22;4746;35.664;139.738;2023-08-21T01:04:49;33.80;99.90
9414;DHT22;4746;35.664;139.738;2023-08-21T01:07:17;33.90;99.90
9414;DHT22;4746;35.664;139.738;2023-08-21T01:09:55;34.00;99.90
9414;DHT22;4746;35.664;139.738;2023-08-21T01:13:24;34.10;99.90
9414;DHT22;4746;35.664;139.738;2023-08-21T01:15:41;34.20;99.90
9414;DHT22;4746;35.664;139.738;2023-08-21T01:18:11;34.40;99.90
9414;DHT22;4746;35.664;139.738;2023-08-21T01:20:40;34.50;99.90
9414;DHT22;4746;35.664;139.738;2023-08-21T01:23:08;34.60;99.90
9414;DHT22;4746;35.664;139.738;2023-08-21T01:25:35;34.60;99.90
9414;DHT22;4746;35.664;139.738;2023-08-21T01:28:04;34.70;99.90
9414;DHT22;4746;35.664;139.738;2023-08-21T01:30:33;34.70;99.90
9414;DHT22;4746;35.664;139.738;2023-08-21T01:33:08;34.70;99.90
9414;DHT22;4746;35.664;139.738;2023-08-21T01:35:39;34.70;99.90
9414;DHT22;4746;35.664;139.738;2023-08-21T01:38:07;34.80;99.90
9414;DHT22;4746;35.664;139.738;2023-08-21T01:40:35;34.90;99.90
9414;DHT22;4746;35.664;139.738;2023-08-21T01:43:02;34.90;99.90
9414;DHT22;4746;35.664;139.738;2023-08-21T01:45:30;35.00;99.90
9414;DHT22;4746;35.664;139.738;2023-08-21T01:47:57;35.10;99.90
9414;DHT22;4746;35.664;139.738;2023-08-21T01:50:25;35.20;99.90
9414;DHT22;4746;35.664;139.738;2023-08-21T01:52:54;35.20;99.90
9414;DHT22;4746;35.664;139.738;2023-08-21T01:55:21;35.20;99.90
9414;DHT22;4746;35.664;139.738;2023-08-21T01:57:49;35.30;99.90
9414;DHT22;4746;35.664;139.738;2023-08-21T02:00:19;35.30;99.90
9414;DHT22;4746;35.664;139.738;2023-08-21T02:02:47;35.30;99.90
9414;DHT22;4746;35.664;139.738;2023-08-21T02:05:16;35.40;99.90
9414;DHT22;4746;35.664;139.738;2023-08-21T02:07:45;35.40;99.90
9414;DHT22;4746;35.664;139.738;2023-08-21T02:10:13;35.40;99.90
9414;DHT22;4746;35.664;139.738;2023-08-21T02:12:41;35.40;99.90
9414;DHT22;4746;35.664;139.738;2023-08-21T02:15:09;35.50;99.90
9414;DHT22;4746;35.664;139.738;2023-08-21T02:17:36;35.50;99.90
9414;DHT22;4746;35.664;139.738;2023-08-21T02:20:07;35.60;99.90
9414;DHT22;4746;35.664;139.738;2023-08-21T02:22:35;35.60;99.90
9414;DHT22;4746;35.664;139.738;2023-08-21T02:25:05;35.70;99.90
9414;DHT22;4746;35.664;139.738;2023-08-21T02:27:33;35.80;99.90
9414;DHT22;4746;35.664;139.738;2023-08-21T02:30:01;35.80;99.90
9414;DHT22;4746;35.664;139.738;2023-08-21T02:32:29;35.80;99.90
9414;DHT22;4746;35.664;139.738;2023-08-21T02:34:56;35.80;99.90
9414;DHT22;4746;35.664;139.738;2023-08-21T02:37:26;35.80;99.90
9414;DHT22;4746;35.664;139.738;2023-08-21T02:39:54;35.90;99.90
9414;DHT22;4746;35.664;139.738;2023-08-21T02:42:21;36.00;99.90
9414;DHT22;4746;35.664;139.738;2023-08-21T02:44:49;36.00;99.90
9414;DHT22;4746;35.664;139.738;2023-08-21T02:47:17;36.00;99.90
9414;DHT22;4746;35.664;139.738;2023-08-21T02:49:49;36.10;99.90
9414;DHT22;4746;35.664;139.738;2023-08-21T02:52:22;36.20;99.90
9414;DHT22;4746;35.664;139.738;2023-08-21T02:54:55;36.30;99.90
9414;DHT22;4746;35.664;139.738;2023-08-21T02:57:42;36.40;99.90
9414;DHT22;4746;35.664;139.738;2023-08-21T03:00:10;36.50;99.90
9414;DHT22;4746;35.664;139.738;2023-08-21T03:02:38;36.50;99.90
9414;DHT22;4746;35.664;139.738;2023-08-21T03:05:10;36.60;99.90
9414;DHT22;4746;35.664;139.738;2023-08-21T03:07:39;36.60;99.90
9414;DHT22;4746;35.664;139.738;2023-08-21T03:10:07;36.70;99.90
9414;DHT22;4746;35.664;139.738;2023-08-21T03:12:36;36.70;99.90
9414;DHT22;4746;35.664;139.738;2023-08-21T03:15:05;36.80;99.90
9414;DHT22;4746;35.664;139.738;2023-08-21T03:17:33;37.00;99.90
9414;DHT22;4746;35.664;139.738;2023-08-21T03:20:01;37.00;99.90
9414;DHT22;4746;35.664;139.738;2023-08-21T03:22:32;37.10;99.90
9414;DHT22;4746;35.664;139.738;2023-08-21T03:25:00;37.10;99.90
9414;DHT22;4746;35.664;139.738;2023-08-21T03:27:35;37.10;99.90
9414;DHT22;4746;35.664;139.738;2023-08-21T03:30:26;37.10;99.90
9414;DHT22;4746;35.664;139.738;2023-08-21T03:33:02;37.20;99.90
9414;DHT22;4746;35.664;139.738;2023-08-21T03:35:36;37.40;99.90
9414;DHT22;4746;35.664;139.738;2023-08-21T03:38:10;37.60;99.90
9414;DHT22;4746;35.664;139.738;2023-08-21T03:40:49;37.70;99.90
9414;DHT22;4746;35.664;139.738;2023-08-21T03:43:23;37.90;99.90
9414;DHT22;4746;35.664;139.738;2023-08-21T03:45:56;38.00;99.90
9414;DHT22;4746;35.664;139.738;2023-08-21T03:48:29;38.20;99.90
9414;DHT22;4746;35.664;139.738;2023-08-21T03:51:08;38.20;99.90
9414;DHT22;4746;35.664;139.738;2023-08-21T03:53:40;38.30;99.90
9414;DHT22;4746;35.664;139.738;2023-08-21T03:56:08;38.30;99.90
9414;DHT22;4746;35.664;139.738;2023-08-21T03:58:36;38.30;99.90
9414;DHT22;4746;35.664;139.738;2023-08-21T04:01:07;38.30;99.90
9414;DHT22;4746;35.664;139.738;2023-08-21T04:03:38;38.40;99.90
9414;DHT22;4746;35.664;139.738;2023-08-21T04:06:09;38.50;99.90
9414;DHT22;4746;35.664;139.738;2023-08-21T04:08:36;38.50;99.90
9414;DHT22;4746;35.664;139.738;2023-08-21T04:11:05;38.60;99.90
9414;DHT22;4746;35.664;139.738;2023-08-21T04:13:33;38.70;99.90
9414;DHT22;4746;35.664;139.738;2023-08-21T04:16:03;38.80;99.90
9414;DHT22;4746;35.664;139.738;2023-08-21T04:18:31;38.90;99.90
9414;DHT22;4746;35.664;139.738;2023-08-21T04:20:58;38.90;99.90
9414;DHT22;4746;35.664;139.738;2023-08-21T04:23:26;39.00;99.90
9414;DHT22;4746;35.664;139.738;2023-08-21T04:25:59;39.10;99.90
9414;DHT22;4746;35.664;139.738;2023-08-21T04:28:32;39.10;99.90
9414;DHT22;4746;35.664;139.738;2023-08-21T04:31:00;39.10;99.90
9414;DHT22;4746;35.664;139.738;2023-08-21T04:33:32;39.30;99.90
9414;DHT22;4746;35.664;139.738;2023-08-21T04:36:01;39.40;99.90
9414;DHT22;4746;35.664;139.738;2023-08-21T04:38:29;39.50;99.90
9414;DHT22;4746;35.664;139.738;2023-08-21T04:41:06;39.50;99.90
9414;DHT22;4746;35.664;139.738;2023-08-21T04:43:34;39.70;99.90
9414;DHT22;4746;35.664;139.738;2023-08-21T04:46:05;39.70;99.90
9414;DHT22;4746;35.664;139.738;2023-08-21T04:48:33;39.80;99.90
9414;DHT22;4746;35.664;139.738;2023-08-21T04:51:01;40.00;99.90
9414;DHT22;4746;35.664;139.738;2023-08-21T04:53:29;40.00;99.90
9414;DHT22;4746;35.664;139.738;2023-08-21T04:55:59;40.20;99.90
9414;DHT22;4746;35.664;139.738;2023-08-21T04:58:27;40.40;99.90
9414;DHT22;4746;35.664;139.738;2023-08-21T05:00:54;40.40;99.90
9414;DHT22;4746;35.664;139.738;2023-08-21T05:03:23;40.60;99.90
9414;DHT22;4746;35.664;139.738;2023-08-21T05:05:57;40.80;99.90
9414;DHT22;4746;35.664;139.738;2023-08-21T05:08:28;40.90;99.90
9414;DHT22;4746;35.664;139.738;2023-08-21T05:10:58;41.00;99.90
9414;DHT22;4746;35.664;139.738;2023-08-21T05:13:26;41.10;99.90
9414;DHT22;4746;35.664;139.738;2023-08-21T05:15:55;41.20;99.90
9414;DHT22;4746;35.664;139.738;2023-08-21T05:18:24;40.80;99.90
9414;DHT22;4746;35.664;139.738;2023-08-21T05:20:55;40.90;99.90
9414;DHT22;4746;35.664;139.738;2023-08-21T05:23:23;41.00;99.90
9414;DHT22;4746;35.664;139.738;2023-08-21T05:25:50;41.10;99.90
9414;DHT22;4746;35.664;139.738;2023-08-21T05:28:20;41.50;99.90
9414;DHT22;4746;35.664;139.738;2023-08-21T05:30:51;41.80;99.90
9414;DHT22;4746;35.664;139.738;2023-08-21T05:33:18;42.00;99.90
9414;DHT22;4746;35.664;139.738;2023-08-21T05:35:46;42.40;99.90
9414;DHT22;4746;35.664;139.738;2023-08-21T05:38:14;42.70;99.90
9414;DHT22;4746;35.664;139.738;2023-08-21T05:40:42;42.50;99.90
9414;DHT22;4746;35.664;139.738;2023-08-21T05:43:10;42.70;99.90
9414;DHT22;4746;35.664;139.738;2023-08-21T05:45:40;43.00;99.90
9414;DHT22;4746;35.664;139.738;2023-08-21T05:48:08;43.30;99.90
9414;DHT22;4746;35.664;139.738;2023-08-21T05:50:39;43.70;99.90
9414;DHT22;4746;35.664;139.738;2023-08-21T05:53:12;43.80;99.90
9414;DHT22;4746;35.664;139.738;2023-08-21T05:55:53;44.00;99.10
9414;DHT22;4746;35.664;139.738;2023-08-21T05:58:21;44.40;96.70
9414;DHT22;4746;35.664;139.738;2023-08-21T06:00:49;44.70;95.90
9414;DHT22;4746;35.664;139.738;2023-08-21T06:03:19;45.10;92.80
9414;DHT22;4746;35.664;139.738;2023-08-21T06:05:56;45.50;91.90
9414;DHT22;4746;35.664;139.738;2023-08-21T06:08:23;45.80;88.90
9414;DHT22;4746;35.664;139.738;2023-08-21T06:10:52;46.20;87.90
9414;DHT22;4746;35.664;139.738;2023-08-21T06:13:20;46.60;81.80
9414;DHT22;4746;35.664;139.738;2023-08-21T06:15:49;47.10;79.90
9414;DHT22;4746;35.664;139.738;2023-08-21T06:18:19;47.60;77.40
9414;DHT22;4746;35.664;139.738;2023-08-21T06:20:47;48.10;72.40
9414;DHT22;4746;35.664;139.738;2023-08-21T06:23:20;48.60;69.50
9414;DHT22;4746;35.664;139.738;2023-08-21T06:25:49;49.20;65.60
9414;DHT22;4746;35.664;139.738;2023-08-21T06:28:19;49.50;59.80
9414;DHT22;4746;35.664;139.738;2023-08-21T06:30:57;50.00;58.10
9414;DHT22;4746;35.664;139.738;2023-08-21T06:33:24;50.50;55.70
9414;DHT22;4746;35.664;139.738;2023-08-21T06:35:52;50.90;55.10
9414;DHT22;4746;35.664;139.738;2023-08-21T06:38:20;51.40;52.20
9414;DHT22;4746;35.664;139.738;2023-08-21T06:40:48;51.70;49.80
9414;DHT22;4746;35.664;139.738;2023-08-21T06:43:17;52.20;48.40
9414;DHT22;4746;35.664;139.738;2023-08-21T06:45:45;52.60;46.60
9414;DHT22;4746;35.664;139.738;2023-08-21T06:48:12;52.50;45.20
9414;DHT22;4746;35.664;139.738;2023-08-21T06:50:40;52.40;44.20
9414;DHT22;4746;35.664;139.738;2023-08-21T06:53:08;52.00;43.90
9414;DHT22;4746;35.664;139.738;2023-08-21T06:55:35;51.70;44.50
9414;DHT22;4746;35.664;139.738;2023-08-21T06:58:03;51.30;44.20
9414;DHT22;4746;35.664;139.738;2023-08-21T07:00:30;50.80;44.90
9414;DHT22;4746;35.664;139.738;2023-08-21T07:03:00;50.40;45.40
9414;DHT22;4746;35.664;139.738;2023-08-21T07:05:29;50.10;46.30
9414;DHT22;4746;35.664;139.738;2023-08-21T07:07:57;49.80;46.90
9414;DHT22;4746;35.664;139.738;2023-08-21T07:10:25;49.70;46.90
9414;DHT22;4746;35.664;139.738;2023-08-21T07:12:55;49.60;47.20
9414;DHT22;4746;35.664;139.738;2023-08-21T07:15:26;49.30;47.40
9414;DHT22;4746;35.664;139.738;2023-08-21T07:17:53;49.00;48.10
9414;DHT22;4746;35.664;139.738;2023-08-21T07:20:22;48.50;49.20
9414;DHT22;4746;35.664;139.738;2023-08-21T07:22:50;48.00;49.60
9414;DHT22;4746;35.664;139.738;2023-08-21T07:25:17;47.40;50.80
9414;DHT22;4746;35.664;139.738;2023-08-21T07:27:45;46.70;52.20
9414;DHT22;4746;35.664;139.738;2023-08-21T07:30:13;46.10;54.00
9414;DHT22;4746;35.664;139.738;2023-08-21T07:32:44;45.40;55.80
9414;DHT22;4746;35.664;139.738;2023-08-21T07:35:12;44.70;59.40
9414;DHT22;4746;35.664;139.738;2023-08-21T07:37:43;44.00;66.20
9414;DHT22;4746;35.664;139.738;2023-08-21T07:40:15;43.70;72.90
9414;DHT22;4746;35.664;139.738;2023-08-21T07:42:42;43.70;78.60
9414;DHT22;4746;35.664;139.738;2023-08-21T07:45:37;43.90;80.80
9414;DHT22;4746;35.664;139.738;2023-08-21T07:48:36;44.00;80.70
9414;DHT22;4746;35.664;139.738;2023-08-21T07:51:18;43.60;83.20
9414;DHT22;4746;35.664;139.738;2023-08-21T07:54:13;43.50;85.80
9414;DHT22;4746;35.664;139.738;2023-08-21T07:56:47;43.70;87.80
9414;DHT22;4746;35.664;139.738;2023-08-21T07:59:45;43.80;88.90
9414;DHT22;4746;35.664;139.738;2023-08-21T08:02:13;43.60;90.10
9414;DHT22;4746;35.664;139.738;2023-08-21T08:07:53;43.00;91.70
9414;DHT22;4746;35.664;139.738;2023-08-21T08:10:40;42.90;93.40
9414;DHT22;4746;35.664;139.738;2023-08-21T08:13:45;42.50;94.50
9414;DHT22;4746;35.664;139.738;2023-08-21T08:16:13;42.10;96.10
9414;DHT22;4746;35.664;139.738;2023-08-21T08:18:42;41.60;98.00
9414;DHT22;4746;35.664;139.738;2023-08-21T08:21:10;41.10;99.90
9414;DHT22;4746;35.664;139.738;2023-08-21T08:23:41;40.60;99.90
9414;DHT22;4746;35.664;139.738;2023-08-21T08:26:09;40.10;99.90
9414;DHT22;4746;35.664;139.738;2023-08-21T08:28:36;39.50;99.90
9414;DHT22;4746;35.664;139.738;2023-08-21T08:31:05;38.70;99.90
9414;DHT22;4746;35.664;139.738;2023-08-21T08:33:32;38.00;99.90
9414;DHT22;4746;35.664;139.738;2023-08-21T08:36:00;37.30;99.90
9414;DHT22;4746;35.664;139.738;2023-08-21T08:38:28;36.80;99.90
9414;DHT22;4746;35.664;139.738;2023-08-21T08:40:55;36.50;99.90
9414;DHT22;4746;35.664;139.738;2023-08-21T08:43:25;36.20;99.90
9414;DHT22;4746;35.664;139.738;2023-08-21T08:45:57;35.90;99.90
9414;DHT22;4746;35.664;139.738;2023-08-21T08:48:28;35.70;99.90
9414;DHT22;4746;35.664;139.738;2023-08-21T08:50:56;35.50;99.90
9414;DHT22;4746;35.664;139.738;2023-08-21T08:53:26;35.20;99.90
9414;DHT22;4746;35.664;139.738;2023-08-21T08:55:55;35.00;99.90
9414;DHT22;4746;35.664;139.738;2023-08-21T08:58:24;34.80;99.90
9414;DHT22;4746;35.664;139.738;2023-08-21T09:00:51;34.50;99.90
9414;DHT22;4746;35.664;139.738;2023-08-21T09:03:19;34.20;99.90
9414;DHT22;4746;35.664;139.738;2023-08-21T09:05:47;34.10;99.90
9414;DHT22;4746;35.664;139.738;2023-08-21T09:08:16;33.90;99.90
9414;DHT22;4746;35.664;139.738;2023-08-21T09:10:44;33.80;99.90
9414;DHT22;4746;35.664;139.738;2023-08-21T09:13:16;33.70;99.90
9414;DHT22;4746;35.664;139.738;2023-08-21T09:15:53;33.50;99.90
9414;DHT22;4746;35.664;139.738;2023-08-21T09:18:24;33.50;99.90
9414;DHT22;4746;35.664;139.738;2023-08-21T09:20:56;33.40;99.90
9414;DHT22;4746;35.664;139.738;2023-08-21T09:23:24;33.40;99.90
9414;DHT22;4746;35.664;139.738;2023-08-21T09:25:55;33.40;99.90
9414;DHT22;4746;35.664;139.738;2023-08-21T09:28:23;33.40;99.90
9414;DHT22;4746;35.664;139.738;2023-08-21T09:30:54;33.30;99.90
9414;DHT22;4746;35.664;139.738;2023-08-21T09:33:23;33.30;99.90
9414;DHT22;4746;35.664;139.738;2023-08-21T09:35:55;33.30;99.90
9414;DHT22;4746;35.664;139.738;2023-08-21T09:38:30;33.30;99.90
9414;DHT22;4746;35.664;139.738;2023-08-21T09:41:05;33.30;99.90
9414;DHT22;4746;35.664;139.738;2023-08-21T09:43:41;33.20;99.90
9414;DHT22;4746;35.664;139.738;2023-08-21T09:46:23;33.00;99.90
9414;DHT22;4746;35.664;139.738;2023-08-21T09:48:53;33.00;99.90
9414;DHT22;4746;35.664;139.738;2023-08-21T09:51:21;32.90;99.90
9414;DHT22;4746;35.664;139.738;2023-08-21T09:53:50;32.80;99.90
9414;DHT22;4746;35.664;139.738;2023-08-21T09:56:20;32.70;99.90
9414;DHT22;4746;35.664;139.738;2023-08-21T09:58:51;32.70;99.90
9414;DHT22;4746;35.664;139.738;2023-08-21T10:01:20;32.60;99.90
9414;DHT22;4746;35.664;139.738;2023-08-21T10:03:51;32.60;99.90
9414;DHT22;4746;35.664;139.738;2023-08-21T10:06:23;32.60;99.90
9414;DHT22;4746;35.664;139.738;2023-08-21T10:08:54;32.60;99.90
9414;DHT22;4746;35.664;139.738;2023-08-21T10:11:23;32.50;99.90
9414;DHT22;4746;35.664;139.738;2023-08-21T10:13:52;32.50;99.90
9414;DHT22;4746;35.664;139.738;2023-08-21T10:16:21;32.50;99.90
9414;DHT22;4746;35.664;139.738;2023-08-21T10:18:49;32.40;99.90
9414;DHT22;4746;35.664;139.738;2023-08-21T10:21:20;32.30;99.90
9414;DHT22;4746;35.664;139.738;2023-08-21T10:23:55;32.30;99.90
9414;DHT22;4746;35.664;139.738;2023-08-21T10:26:26;32.30;99.90
9414;DHT22;4746;35.664;139.738;2023-08-21T10:28:56;32.30;99.90
9414;DHT22;4746;35.664;139.738;2023-08-21T10:31:37;32.30;99.90
9414;DHT22;4746;35.664;139.738;2023-08-21T10:34:13;32.30;99.90
9414;DHT22;4746;35.664;139.738;2023-08-21T10:37:10;32.30;99.90
9414;DHT22;4746;35.664;139.738;2023-08-21T10:40:24;32.30;99.90
9414;DHT22;4746;35.664;139.738;2023-08-21T10:46:51;32.20;99.90
9414;DHT22;4746;35.664;139.738;2023-08-21T10:52:46;32.20;99.90
9414;DHT22;4746;35.664;139.738;2023-08-21T10:55:38;32.20;99.90
9414;DHT22;4746;35.664;139.738;2023-08-21T10:58:46;32.20;99.90
9414;DHT22;4746;35.664;139.738;2023-08-21T11:02:13;32.10;99.90
9414;DHT22;4746;35.664;139.738;2023-08-21T11:08:12;32.10;99.90
9414;DHT22;4746;35.664;139.738;2023-08-21T11:10:41;32.00;99.90
9414;DHT22;4746;35.664;139.738;2023-08-21T11:13:40;32.00;99.90
9414;DHT22;4746;35.664;139.738;2023-08-21T11:16:07;32.00;99.90
9414;DHT22;4746;35.664;139.738;2023-08-21T11:18:42;32.00;99.90
9414;DHT22;4746;35.664;139.738;2023-08-21T11:21:42;32.00;99.90
9414;DHT22;4746;35.664;139.738;2023-08-21T11:24:46;32.00;99.90
9414;DHT22;4746;35.664;139.738;2023-08-21T11:27:17;32.00;99.90
9414;DHT22;4746;35.664;139.738;2023-08-21T11:29:50;31.90;99.90
9414;DHT22;4746;35.664;139.738;2023-08-21T11:32:23;31.90;99.90
9414;DHT22;4746;35.664;139.738;2023-08-21T11:34:57;31.90;99.90
9414;DHT22;4746;35.664;139.738;2023-08-21T11:37:26;31.80;99.90
9414;DHT22;4746;35.664;139.738;2023-08-21T11:39:56;31.80;99.90
9414;DHT22;4746;35.664;139.738;2023-08-21T11:42:32;31.80;99.90
9414;DHT22;4746;35.664;139.738;2023-08-21T11:45:01;31.80;99.90
9414;DHT22;4746;35.664;139.738;2023-08-21T11:47:34;31.80;99.90
9414;DHT22;4746;35.664;139.738;2023-08-21T11:50:06;31.90;99.90
9414;DHT22;4746;35.664;139.738;2023-08-21T11:52:39;31.90;99.90
9414;DHT22;4746;35.664;139.738;2023-08-21T11:55:08;31.90;99.90
9414;DHT22;4746;35.664;139.738;2023-08-21T11:57:52;31.90;99.90
9414;DHT22;4746;35.664;139.738;2023-08-21T12:00:29;31.80;99.90
9414;DHT22;4746;35.664;139.738;2023-08-21T12:03:01;31.70;99.90
9414;DHT22;4746;35.664;139.738;2023-08-21T12:05:32;31.70;99.90
9414;DHT22;4746;35.664;139.738;2023-08-21T12:08:03;31.70;99.90
9414;DHT22;4746;35.664;139.738;2023-08-21T12:10:31;31.70;99.90
9414;DHT22;4746;35.664;139.738;2023-08-21T12:12:58;31.70;99.90
9414;DHT22;4746;35.664;139.738;2023-08-21T12:15:26;31.70;99.90
9414;DHT22;4746;35.664;139.738;2023-08-21T12:17:54;31.60;99.90
9414;DHT22;4746;35.664;139.738;2023-08-21T12:20:21;31.60;99.90
9414;DHT22;4746;35.664;139.738;2023-08-21T12:22:49;31.60;99.90
9414;DHT22;4746;35.664;139.738;2023-08-21T12:25:17;31.60;99.90
9414;DHT22;4746;35.664;139.738;2023-08-21T12:27:44;31.50;99.90
9414;DHT22;4746;35.664;139.738;2023-08-21T12:30:13;31.50;99.90
9414;DHT22;4746;35.664;139.738;2023-08-21T12:32:40;31.50;99.90
9414;DHT22;4746;35.664;139.738;2023-08-21T12:35:08;31.50;99.90
9414;DHT22;4746;35.664;139.738;2023-08-21T12:37:38;31.50;99.90
9414;DHT22;4746;35.664;139.738;2023-08-21T12:40:06;31.50;99.90
9414;DHT22;4746;35.664;139.738;2023-08-21T12:42:35;31.40;99.90
9414;DHT22;4746;35.664;139.738;2023-08-21T12:45:03;31.40;99.90
9414;DHT22;4746;35.664;139.738;2023-08-21T12:47:31;31.40;99.90
9414;DHT22;4746;35.664;139.738;2023-08-21T12:49:59;31.40;99.90
9414;DHT22;4746;35.664;139.738;2023-08-21T12:52:27;31.40;99.90
9414;DHT22;4746;35.664;139.738;2023-08-21T12:54:57;31.50;99.90
9414;DHT22;4746;35.664;139.738;2023-08-21T12:57:25;31.50;99.90
9414;DHT22;4746;35.664;139.738;2023-08-21T12:59:55;31.50;99.90
9414;DHT22;4746;35.664;139.738;2023-08-21T13:02:22;31.50;99.90
9414;DHT22;4746;35.664;139.738;2023-08-21T13:04:50;31.50;99.90
9414;DHT22;4746;35.664;139.738;2023-08-21T13:07:18;31.50;99.90
9414;DHT22;4746;35.664;139.738;2023-08-21T13:09:45;31.50;99.90
9414;DHT22;4746;35.664;139.738;2023-08-21T13:12:15;31.50;99.90
9414;DHT22;4746;35.664;139.738;2023-08-21T13:14:42;31.50;99.90
9414;DHT22;4746;35.664;139.738;2023-08-21T13:17:12;31.50;99.90
9414;DHT22;4746;35.664;139.738;2023-08-21T13:19:39;31.50;99.90
9414;DHT22;4746;35.664;139.738;2023-08-21T13:22:07;31.50;99.90
9414;DHT22;4746;35.664;139.738;2023-08-21T13:24:34;31.50;99.90
9414;DHT22;4746;35.664;139.738;2023-08-21T13:27:02;31.50;99.90
9414;DHT22;4746;35.664;139.738;2023-08-21T13:29:29;31.50;99.90
9414;DHT22;4746;35.664;139.738;2023-08-21T13:31:57;31.40;99.90
9414;DHT22;4746;35.664;139.738;2023-08-21T13:34:24;31.40;99.90
9414;DHT22;4746;35.664;139.738;2023-08-21T13:36:52;31.30;99.90
9414;DHT22;4746;35.664;139.738;2023-08-21T13:39:19;31.20;99.90
9414;DHT22;4746;35.664;139.738;2023-08-21T13:41:49;31.20;99.90
9414;DHT22;4746;35.664;139.738;2023-08-21T13:44:16;31.20;99.90
9414;DHT22;4746;35.664;139.738;2023-08-21T13:46:44;31.20;99.90
9414;DHT22;4746;35.664;139.738;2023-08-21T13:49:12;31.10;99.90
9414;DHT22;4746;35.664;139.738;2023-08-21T13:51:39;31.10;99.90
9414;DHT22;4746;35.664;139.738;2023-08-21T13:57:48;31.00;99.90
9414;DHT22;4746;35.664;139.738;2023-08-21T14:00:16;30.90;99.90
9414;DHT22;4746;35.664;139.738;2023-08-21T14:02:44;30.90;99.90
9414;DHT22;4746;35.664;139.738;2023-08-21T14:05:12;30.90;99.90
9414;DHT22;4746;35.664;139.738;2023-08-21T14:07:40;30.90;99.90
9414;DHT22;4746;35.664;139.738;2023-08-21T14:10:08;30.90;99.90
9414;DHT22;4746;35.664;139.738;2023-08-21T14:12:36;30.90;99.90
9414;DHT22;4746;35.664;139.738;2023-08-21T14:15:04;30.90;99.90
9414;DHT22;4746;35.664;139.738;2023-08-21T14:17:33;30.90;99.90
9414;DHT22;4746;35.664;139.738;2023-08-21T14:20:01;30.80;99.90
9414;DHT22;4746;35.664;139.738;2023-08-21T14:22:29;30.90;99.90
9414;DHT22;4746;35.664;139.738;2023-08-21T14:24:58;30.90;99.90
9414;DHT22;4746;35.664;139.738;2023-08-21T14:27:25;30.90;99.90
9414;DHT22;4746;35.664;139.738;2023-08-21T14:29:53;30.90;99.90
9414;DHT22;4746;35.664;139.738;2023-08-21T14:32:21;30.90;99.90
9414;DHT22;4746;35.664;139.738;2023-08-21T14:34:49;30.90;99.90
9414;DHT22;4746;35.664;139.738;2023-08-21T14:37:22;30.90;99.90
9414;DHT22;4746;35.664;139.738;2023-08-21T14:39:50;30.90;99.90
9414;DHT22;4746;35.664;139.738;2023-08-21T14:42:17;30.90;99.90
9414;DHT22;4746;35.664;139.738;2023-08-21T14:44:45;30.90;99.90
9414;DHT22;4746;35.664;139.738;2023-08-21T14:47:12;30.90;99.90
9414;DHT22;4746;35.664;139.738;2023-08-21T14:49:40;30.90;99.90
9414;DHT22;4746;35.664;139.738;2023-08-21T14:52:08;30.90;99.90
9414;DHT22;4746;35.664;139.738;2023-08-21T14:54:35;30.90;99.90
9414;DHT22;4746;35.664;139.738;2023-08-21T14:57:03;30.90;99.90
9414;DHT22;4746;35.664;139.738;2023-08-21T14:59:31;30.90;99.90
9414;DHT22;4746;35.664;139.738;2023-08-21T15:01:59;30.90;99.90
9414;DHT22;4746;35.664;139.738;2023-08-21T15:04:26;30.80;99.90
9414;DHT22;4746;35.664;139.738;2023-08-21T15:06:54;30.80;99.90
9414;DHT22;4746;35.664;139.738;2023-08-21T15:09:21;30.80;99.90
9414;DHT22;4746;35.664;139.738;2023-08-21T15:11:49;30.80;99.90
9414;DHT22;4746;35.664;139.738;2023-08-21T15:14:16;30.80;99.90
9414;DHT22;4746;35.664;139.738;2023-08-21T15:16:44;30.80;99.90
9414;DHT22;4746;35.664;139.738;2023-08-21T15:19:11;30.80;99.90
9414;DHT22;4746;35.664;139.738;2023-08-21T15:21:39;30.70;99.90
9414;DHT22;4746;35.664;139.738;2023-08-21T15:24:06;30.80;99.90
9414;DHT22;4746;35.664;139.738;2023-08-21T15:26:35;30.70;99.90
9414;DHT22;4746;35.664;139.738;2023-08-21T15:29:02;30.80;99.90
9414;DHT22;4746;35.664;139.738;2023-08-21T15:31:30;30.80;99.90
9414;DHT22;4746;35.664;139.738;2023-08-21T15:33:57;30.80;99.90
9414;DHT22;4746;35.664;139.738;2023-08-21T15:36:25;30.80;99.90
9414;DHT22;4746;35.664;139.738;2023-08-21T15:38:53;30.80;99.90
9414;DHT22;4746;35.664;139.738;2023-08-21T15:41:21;30.80;99.90
9414;DHT22;4746;35.664;139.738;2023-08-21T15:43:48;30.80;99.90
9414;DHT22;4746;35.664;139.738;2023-08-21T15:46:18;30.80;99.90
9414;DHT22;4746;35.664;139.738;2023-08-21T15:48:45;30.80;99.90
9414;DHT22;4746;35.664;139.738;2023-08-21T15:51:13;30.80;99.90
9414;DHT22;4746;35.664;139.738;2023-08-21T15:53:41;30.80;99.90
9414;DHT22;4746;35.664;139.738;2023-08-21T15:56:08;30.80;99.90
9414;DHT22;4746;35.664;139.738;2023-08-21T15:58:36;30.80;99.90
9414;DHT22;4746;35.664;139.738;2023-08-21T16:01:03;30.80;99.90
9414;DHT22;4746;35.664;139.738;2023-08-21T16:03:31;30.90;99.90
9414;DHT22;4746;35.664;139.738;2023-08-21T16:06:03;30.90;99.90
9414;DHT22;4746;35.664;139.738;2023-08-21T16:08:30;30.80;99.90